sensor_id;sensor_type;location;lat;lon;timestamp;temperature;humidity
336;DHT22;156;48.738;9.228;2023-02-27T00:02:05;-2.40;1.00
336;DHT22;156;48.738;9.228;2023-02-27T00:04:31;-2.40;1.00
336;DHT22;156;48.738;9.228;2023-02-27T00:06:58;-2.30;1.00
336;DHT22;156;48.738;9.228;2023-02-27T00:09:25;-2.40;1.00
336;DHT22;156;48.738;9.228;2023-02-27T00:11:52;-2.40;1.00
336;DHT22;156;48.738;9.228;2023-02-27T00:14:21;-2.30;1.00
336;DHT22;156;48.738;9.228;2023-02-27T00:16:48;-2.30;1.00
336;DHT22;156;48.738;9.228;2023-02-27T00:19:14;-2.40;1.00
336;DHT22;156;48.738;9.228;2023-02-27T00:21:41;-2.40;1.00
336;DHT22;156;48.738;9.228;2023-02-27T00:24:09;-2.80;1.00
336;DHT22;156;48.738;9.228;2023-02-27T00:26:36;-2.40;1.00
336;DHT22;156;48.738;9.228;2023-02-27T00:29:03;-2.40;1.00
336;DHT22;156;48.738;9.228;2023-02-27T00:31:32;-2.30;1.00
336;DHT22;156;48.738;9.228;2023-02-27T00:33:59;-2.30;1.00
336;DHT22;156;48.738;9.228;2023-02-27T00:36:26;-2.30;1.00
336;DHT22;156;48.738;9.228;2023-02-27T00:38:53;-2.30;1.00
336;DHT22;156;48.738;9.228;2023-02-27T00:41:20;-2.30;1.00
336;DHT22;156;48.738;9.228;2023-02-27T00:43:46;-2.20;1.00
336;DHT22;156;48.738;9.228;2023-02-27T00:46:13;-2.30;1.00
336;DHT22;156;48.738;9.228;2023-02-27T00:48:41;-2.20;1.00
336;DHT22;156;48.738;9.228;2023-02-27T00:51:08;-2.30;1.00
336;DHT22;156;48.738;9.228;2023-02-27T00:53:35;-2.30;1.00
336;DHT22;156;48.738;9.228;2023-02-27T00:56:02;-2.40;1.00
336;DHT22;156;48.738;9.228;2023-02-27T00:58:29;-2.50;1.00
336;DHT22;156;48.738;9.228;2023-02-27T01:00:58;-2.50;1.00
336;DHT22;156;48.738;9.228;2023-02-27T01:03:25;-2.50;1.00
336;DHT22;156;48.738;9.228;2023-02-27T01:05:53;-2.50;1.00
336;DHT22;156;48.738;9.228;2023-02-27T01:08:20;-2.50;1.00
336;DHT22;156;48.738;9.228;2023-02-27T01:10:47;-2.50;1.00
336;DHT22;156;48.738;9.228;2023-02-27T01:13:14;-2.50;1.00
336;DHT22;156;48.738;9.228;2023-02-27T01:15:41;-2.50;1.00
336;DHT22;156;48.738;9.228;2023-02-27T01:18:08;-2.50;1.00
336;DHT22;156;48.738;9.228;2023-02-27T01:20:34;-2.40;1.00
336;DHT22;156;48.738;9.228;2023-02-27T01:23:03;-2.40;1.00
336;DHT22;156;48.738;9.228;2023-02-27T01:25:30;-2.40;1.00
336;DHT22;156;48.738;9.228;2023-02-27T01:27:57;-2.30;1.00
336;DHT22;156;48.738;9.228;2023-02-27T01:30:23;-2.40;1.00
336;DHT22;156;48.738;9.228;2023-02-27T01:32:50;-2.40;1.00
336;DHT22;156;48.738;9.228;2023-02-27T01:35:17;-2.40;1.00
336;DHT22;156;48.738;9.228;2023-02-27T01:37:44;-2.50;1.00
336;DHT22;156;48.738;9.228;2023-02-27T01:40:13;-2.50;1.00
336;DHT22;156;48.738;9.228;2023-02-27T01:42:41;-2.50;1.00
336;DHT22;156;48.738;9.228;2023-02-27T01:45:30;-2.40;1.00
336;DHT22;156;48.738;9.228;2023-02-27T01:48:11;-2.40;1.00
336;DHT22;156;48.738;9.228;2023-02-27T01:50:43;-2.40;1.00
336;DHT22;156;48.738;9.228;2023-02-27T01:53:11;-2.40;1.00
336;DHT22;156;48.738;9.228;2023-02-27T01:55:40;-2.40;1.00
336;DHT22;156;48.738;9.228;2023-02-27T01:58:09;-2.40;1.00
336;DHT22;156;48.738;9.228;2023-02-27T02:00:38;-2.40;1.00
336;DHT22;156;48.738;9.228;2023-02-27T02:03:13;-2.40;1.00
336;DHT22;156;48.738;9.228;2023-02-27T02:05:42;-2.40;1.00
336;DHT22;156;48.738;9.228;2023-02-27T02:08:13;-2.40;1.00
336;DHT22;156;48.738;9.228;2023-02-27T02:10:42;-2.50;1.00
336;DHT22;156;48.738;9.228;2023-02-27T02:13:09;-2.40;1.00
336;DHT22;156;48.738;9.228;2023-02-27T02:15:40;-2.40;1.00
336;DHT22;156;48.738;9.228;2023-02-27T02:18:17;-2.40;1.00
336;DHT22;156;48.738;9.228;2023-02-27T02:21:21;-2.50;1.00
336;DHT22;156;48.738;9.228;2023-02-27T02:24:19;-2.40;1.00
336;DHT22;156;48.738;9.228;2023-02-27T02:26:58;-2.50;1.00
336;DHT22;156;48.738;9.228;2023-02-27T02:30:08;-2.40;1.00
336;DHT22;156;48.738;9.228;2023-02-27T02:32:52;-2.50;1.00
336;DHT22;156;48.738;9.228;2023-02-27T02:41:37;-2.50;1.00
336;DHT22;156;48.738;9.228;2023-02-27T02:44:17;-2.50;1.00
336;DHT22;156;48.738;9.228;2023-02-27T02:46:46;-2.60;1.00
336;DHT22;156;48.738;9.228;2023-02-27T02:49:23;-2.60;1.00
336;DHT22;156;48.738;9.228;2023-02-27T02:51:56;-2.60;1.00
336;DHT22;156;48.738;9.228;2023-02-27T02:54:32;-2.50;1.00
336;DHT22;156;48.738;9.228;2023-02-27T02:57:05;-2.60;1.00
336;DHT22;156;48.738;9.228;2023-02-27T02:59:40;-2.60;1.00
336;DHT22;156;48.738;9.228;2023-02-27T03:02:12;-2.60;1.00
336;DHT22;156;48.738;9.228;2023-02-27T03:04:43;-2.60;1.00
336;DHT22;156;48.738;9.228;2023-02-27T03:07:15;-2.60;1.00
336;DHT22;156;48.738;9.228;2023-02-27T03:09:47;-2.60;1.00
336;DHT22;156;48.738;9.228;2023-02-27T03:12:20;-2.60;1.00
336;DHT22;156;48.738;9.228;2023-02-27T03:14:52;-2.60;1.00
336;DHT22;156;48.738;9.228;2023-02-27T03:17:25;-2.70;1.00
336;DHT22;156;48.738;9.228;2023-02-27T03:19:56;-2.70;1.00
336;DHT22;156;48.738;9.228;2023-02-27T03:22:28;-2.70;1.00
336;DHT22;156;48.738;9.228;2023-02-27T03:24:59;-2.70;1.00
336;DHT22;156;48.738;9.228;2023-02-27T03:27:31;-2.70;1.00
336;DHT22;156;48.738;9.228;2023-02-27T03:30:02;-2.70;1.00
336;DHT22;156;48.738;9.228;2023-02-27T03:32:35;-2.70;1.00
336;DHT22;156;48.738;9.228;2023-02-27T03:35:05;-2.70;1.00
336;DHT22;156;48.738;9.228;2023-02-27T03:37:38;-2.80;1.00
336;DHT22;156;48.738;9.228;2023-02-27T03:40:13;-2.80;1.00
336;DHT22;156;48.738;9.228;2023-02-27T03:42:51;-2.80;1.00
336;DHT22;156;48.738;9.228;2023-02-27T03:45:24;-2.80;1.00
336;DHT22;156;48.738;9.228;2023-02-27T03:47:53;-2.80;1.00
336;DHT22;156;48.738;9.228;2023-02-27T03:50:20;-2.80;1.00
336;DHT22;156;48.738;9.228;2023-02-27T03:52:48;-2.70;1.00
336;DHT22;156;48.738;9.228;2023-02-27T03:55:17;-2.70;1.00
336;DHT22;156;48.738;9.228;2023-02-27T03:57:47;-2.80;1.00
336;DHT22;156;48.738;9.228;2023-02-27T04:00:17;-2.80;1.00
336;DHT22;156;48.738;9.228;2023-02-27T04:02:46;-2.80;1.00
336;DHT22;156;48.738;9.228;2023-02-27T04:05:15;-2.90;1.00
336;DHT22;156;48.738;9.228;2023-02-27T04:07:47;-2.80;1.00
336;DHT22;156;48.738;9.228;2023-02-27T04:10:25;-2.80;1.00
336;DHT22;156;48.738;9.228;2023-02-27T04:13:16;-2.80;1.00
336;DHT22;156;48.738;9.228;2023-02-27T04:18:50;-2.80;1.00
336;DHT22;156;48.738;9.228;2023-02-27T04:21:23;-2.80;1.00
336;DHT22;156;48.738;9.228;2023-02-27T04:23:56;-2.80;1.00
336;DHT22;156;48.738;9.228;2023-02-27T04:26:32;-2.80;1.00
336;DHT22;156;48.738;9.228;2023-02-27T04:29:06;-2.80;1.00
336;DHT22;156;48.738;9.228;2023-02-27T04:31:40;-2.80;1.00
336;DHT22;156;48.738;9.228;2023-02-27T04:34:15;-2.80;1.00
336;DHT22;156;48.738;9.228;2023-02-27T04:36:47;-2.90;1.00
336;DHT22;156;48.738;9.228;2023-02-27T04:39:20;-2.90;1.00
336;DHT22;156;48.738;9.228;2023-02-27T04:41:50;-2.80;1.00
336;DHT22;156;48.738;9.228;2023-02-27T04:44:22;-2.80;1.00
336;DHT22;156;48.738;9.228;2023-02-27T04:46:52;-2.90;1.00
336;DHT22;156;48.738;9.228;2023-02-27T04:49:23;-2.90;1.00
336;DHT22;156;48.738;9.228;2023-02-27T04:51:56;-2.80;1.00
336;DHT22;156;48.738;9.228;2023-02-27T04:54:30;-2.90;1.00
336;DHT22;156;48.738;9.228;2023-02-27T04:57:01;-2.90;1.00
336;DHT22;156;48.738;9.228;2023-02-27T04:59:34;-2.90;1.00
336;DHT22;156;48.738;9.228;2023-02-27T05:02:06;-2.90;1.00
336;DHT22;156;48.738;9.228;2023-02-27T05:04:36;-2.90;1.00
336;DHT22;156;48.738;9.228;2023-02-27T05:07:07;-2.90;1.00
336;DHT22;156;48.738;9.228;2023-02-27T05:09:39;-2.90;1.00
336;DHT22;156;48.738;9.228;2023-02-27T05:12:13;-2.90;1.00
336;DHT22;156;48.738;9.228;2023-02-27T05:14:48;-2.90;1.00
336;DHT22;156;48.738;9.228;2023-02-27T05:17:19;-2.90;1.00
336;DHT22;156;48.738;9.228;2023-02-27T05:19:47;-3.00;1.00
336;DHT22;156;48.738;9.228;2023-02-27T05:22:21;-3.00;1.00
336;DHT22;156;48.738;9.228;2023-02-27T05:24:53;-3.00;1.00
336;DHT22;156;48.738;9.228;2023-02-27T05:27:29;-3.10;1.00
336;DHT22;156;48.738;9.228;2023-02-27T05:30:00;-3.10;1.00
336;DHT22;156;48.738;9.228;2023-02-27T05:32:34;-3.10;1.00
336;DHT22;156;48.738;9.228;2023-02-27T05:35:12;-3.10;1.00
336;DHT22;156;48.738;9.228;2023-02-27T05:37:44;-3.10;1.00
336;DHT22;156;48.738;9.228;2023-02-27T05:40:15;-3.10;1.00
336;DHT22;156;48.738;9.228;2023-02-27T05:42:46;-3.10;1.00
336;DHT22;156;48.738;9.228;2023-02-27T05:45:20;-3.10;1.00
336;DHT22;156;48.738;9.228;2023-02-27T05:47:53;-3.10;1.00
336;DHT22;156;48.738;9.228;2023-02-27T05:50:25;-3.20;1.00
336;DHT22;156;48.738;9.228;2023-02-27T05:52:54;-3.20;1.00
336;DHT22;156;48.738;9.228;2023-02-27T05:55:26;-3.20;1.00
336;DHT22;156;48.738;9.228;2023-02-27T05:57:58;-3.20;1.00
336;DHT22;156;48.738;9.228;2023-02-27T06:00:34;-3.20;1.00
336;DHT22;156;48.738;9.228;2023-02-27T06:03:02;-3.30;1.00
336;DHT22;156;48.738;9.228;2023-02-27T06:05:29;-3.30;1.00
336;DHT22;156;48.738;9.228;2023-02-27T06:07:56;-3.30;1.00
336;DHT22;156;48.738;9.228;2023-02-27T06:10:23;-3.20;1.00
336;DHT22;156;48.738;9.228;2023-02-27T06:12:50;-3.30;1.00
336;DHT22;156;48.738;9.228;2023-02-27T06:15:17;-3.20;1.00
336;DHT22;156;48.738;9.228;2023-02-27T06:17:45;-3.20;1.00
336;DHT22;156;48.738;9.228;2023-02-27T06:20:12;-3.30;1.00
336;DHT22;156;48.738;9.228;2023-02-27T06:22:39;-3.20;1.00
336;DHT22;156;48.738;9.228;2023-02-27T06:25:07;-3.30;1.00
336;DHT22;156;48.738;9.228;2023-02-27T06:27:33;-3.20;1.00
336;DHT22;156;48.738;9.228;2023-02-27T06:30:00;-3.30;1.00
336;DHT22;156;48.738;9.228;2023-02-27T06:32:27;-3.20;1.00
336;DHT22;156;48.738;9.228;2023-02-27T06:34:55;-3.10;1.00
336;DHT22;156;48.738;9.228;2023-02-27T06:37:22;-3.20;1.00
336;DHT22;156;48.738;9.228;2023-02-27T06:39:49;-3.10;1.00
336;DHT22;156;48.738;9.228;2023-02-27T06:42:16;-3.20;1.00
336;DHT22;156;48.738;9.228;2023-02-27T06:44:43;-3.20;1.00
336;DHT22;156;48.738;9.228;2023-02-27T06:47:10;-3.20;1.00
336;DHT22;156;48.738;9.228;2023-02-27T06:49:37;-3.20;1.00
336;DHT22;156;48.738;9.228;2023-02-27T06:52:06;-3.10;1.00
336;DHT22;156;48.738;9.228;2023-02-27T06:54:32;-3.10;1.00
336;DHT22;156;48.738;9.228;2023-02-27T06:57:00;-3.00;1.00
336;DHT22;156;48.738;9.228;2023-02-27T06:59:26;-3.00;1.00
336;DHT22;156;48.738;9.228;2023-02-27T07:01:53;-3.00;1.00
336;DHT22;156;48.738;9.228;2023-02-27T07:04:20;-3.00;1.00
336;DHT22;156;48.738;9.228;2023-02-27T07:06:47;-3.00;1.00
336;DHT22;156;48.738;9.228;2023-02-27T07:09:15;-2.90;1.00
336;DHT22;156;48.738;9.228;2023-02-27T07:11:42;-2.90;1.00
336;DHT22;156;48.738;9.228;2023-02-27T07:14:09;-2.90;1.00
336;DHT22;156;48.738;9.228;2023-02-27T07:16:37;-2.90;1.00
336;DHT22;156;48.738;9.228;2023-02-27T07:19:04;-2.80;1.00
336;DHT22;156;48.738;9.228;2023-02-27T07:21:30;-2.80;1.00
336;DHT22;156;48.738;9.228;2023-02-27T07:23:58;-2.70;1.00
336;DHT22;156;48.738;9.228;2023-02-27T07:26:26;-2.60;1.00
336;DHT22;156;48.738;9.228;2023-02-27T07:28:53;-2.50;1.00
336;DHT22;156;48.738;9.228;2023-02-27T07:31:20;-2.50;1.00
336;DHT22;156;48.738;9.228;2023-02-27T07:33:47;-2.40;1.00
336;DHT22;156;48.738;9.228;2023-02-27T07:36:14;-2.40;1.00
336;DHT22;156;48.738;9.228;2023-02-27T07:38:40;-2.40;1.00
336;DHT22;156;48.738;9.228;2023-02-27T07:41:07;-2.40;1.00
336;DHT22;156;48.738;9.228;2023-02-27T07:43:36;-2.30;1.00
336;DHT22;156;48.738;9.228;2023-02-27T07:46:02;-2.30;1.00
336;DHT22;156;48.738;9.228;2023-02-27T07:48:30;-2.20;1.00
336;DHT22;156;48.738;9.228;2023-02-27T07:50:57;-2.20;1.00
336;DHT22;156;48.738;9.228;2023-02-27T07:53:24;-2.10;1.00
336;DHT22;156;48.738;9.228;2023-02-27T07:55:52;-2.10;1.00
336;DHT22;156;48.738;9.228;2023-02-27T07:58:18;-2.00;1.00
336;DHT22;156;48.738;9.228;2023-02-27T08:00:47;-2.00;1.00
336;DHT22;156;48.738;9.228;2023-02-27T08:03:14;-2.00;1.00
336;DHT22;156;48.738;9.228;2023-02-27T08:05:40;-2.00;1.00
336;DHT22;156;48.738;9.228;2023-02-27T08:08:07;-2.00;1.00
336;DHT22;156;48.738;9.228;2023-02-27T08:10:34;-1.90;1.00
336;DHT22;156;48.738;9.228;2023-02-27T08:13:01;-1.80;1.00
336;DHT22;156;48.738;9.228;2023-02-27T08:15:28;-1.70;1.00
336;DHT22;156;48.738;9.228;2023-02-27T08:17:58;-1.70;1.00
336;DHT22;156;48.738;9.228;2023-02-27T08:20:25;-1.60;1.00
336;DHT22;156;48.738;9.228;2023-02-27T08:22:52;-1.60;1.00
336;DHT22;156;48.738;9.228;2023-02-27T08:25:19;-1.50;1.00
336;DHT22;156;48.738;9.228;2023-02-27T08:27:46;-1.50;1.00
336;DHT22;156;48.738;9.228;2023-02-27T08:30:13;-1.30;1.00
336;DHT22;156;48.738;9.228;2023-02-27T08:32:41;-1.20;1.00
336;DHT22;156;48.738;9.228;2023-02-27T08:35:11;-1.10;1.00
336;DHT22;156;48.738;9.228;2023-02-27T08:37:38;-1.20;1.00
336;DHT22;156;48.738;9.228;2023-02-27T08:40:06;-1.10;1.00
336;DHT22;156;48.738;9.228;2023-02-27T08:42:35;-1.10;1.00
336;DHT22;156;48.738;9.228;2023-02-27T08:45:03;-0.90;1.00
336;DHT22;156;48.738;9.228;2023-02-27T08:47:30;-0.90;1.00
336;DHT22;156;48.738;9.228;2023-02-27T08:49:56;-0.80;1.00
336;DHT22;156;48.738;9.228;2023-02-27T08:52:27;-0.70;1.00
336;DHT22;156;48.738;9.228;2023-02-27T08:54:54;-0.80;1.00
336;DHT22;156;48.738;9.228;2023-02-27T08:57:21;-0.70;1.00
336;DHT22;156;48.738;9.228;2023-02-27T08:59:48;-0.70;1.00
336;DHT22;156;48.738;9.228;2023-02-27T09:02:15;-0.60;1.00
336;DHT22;156;48.738;9.228;2023-02-27T09:04:42;-0.50;1.00
336;DHT22;156;48.738;9.228;2023-02-27T09:07:09;-0.30;1.00
336;DHT22;156;48.738;9.228;2023-02-27T09:09:37;-0.40;1.00
336;DHT22;156;48.738;9.228;2023-02-27T09:12:05;-0.50;1.00
336;DHT22;156;48.738;9.228;2023-02-27T09:14:32;-0.40;1.00
336;DHT22;156;48.738;9.228;2023-02-27T09:16:58;-0.30;1.00
336;DHT22;156;48.738;9.228;2023-02-27T09:19:26;-0.20;1.00
336;DHT22;156;48.738;9.228;2023-02-27T09:21:53;-0.10;1.00
336;DHT22;156;48.738;9.228;2023-02-27T09:24:19;-0.10;1.00
336;DHT22;156;48.738;9.228;2023-02-27T09:26:48;0.00;1.00
336;DHT22;156;48.738;9.228;2023-02-27T09:29:15;0.10;1.00
336;DHT22;156;48.738;9.228;2023-02-27T09:31:41;0.10;1.00
336;DHT22;156;48.738;9.228;2023-02-27T09:34:08;0.10;1.00
336;DHT22;156;48.738;9.228;2023-02-27T09:36:35;0.10;1.00
336;DHT22;156;48.738;9.228;2023-02-27T09:39:03;0.10;1.00
336;DHT22;156;48.738;9.228;2023-02-27T09:41:41;0.10;1.00
336;DHT22;156;48.738;9.228;2023-02-27T09:44:20;0.20;1.00
336;DHT22;156;48.738;9.228;2023-02-27T09:46:49;0.30;1.00
336;DHT22;156;48.738;9.228;2023-02-27T09:49:18;0.40;1.00
336;DHT22;156;48.738;9.228;2023-02-27T09:51:47;0.50;1.00
336;DHT22;156;48.738;9.228;2023-02-27T09:54:16;0.50;1.00
336;DHT22;156;48.738;9.228;2023-02-27T09:56:48;0.50;1.00
336;DHT22;156;48.738;9.228;2023-02-27T09:59:28;0.60;1.00
336;DHT22;156;48.738;9.228;2023-02-27T10:02:01;0.60;1.00
336;DHT22;156;48.738;9.228;2023-02-27T10:04:38;0.60;1.00
336;DHT22;156;48.738;9.228;2023-02-27T10:07:12;0.70;1.00
336;DHT22;156;48.738;9.228;2023-02-27T10:09:49;0.80;1.00
336;DHT22;156;48.738;9.228;2023-02-27T10:12:39;1.00;1.00
336;DHT22;156;48.738;9.228;2023-02-27T10:15:22;1.00;1.00
336;DHT22;156;48.738;9.228;2023-02-27T10:17:53;1.00;1.00
336;DHT22;156;48.738;9.228;2023-02-27T10:20:25;1.20;1.00
336;DHT22;156;48.738;9.228;2023-02-27T10:22:54;1.20;1.00
336;DHT22;156;48.738;9.228;2023-02-27T10:25:22;1.10;1.00
336;DHT22;156;48.738;9.228;2023-02-27T10:27:54;1.20;1.00
336;DHT22;156;48.738;9.228;2023-02-27T10:30:25;1.20;1.00
336;DHT22;156;48.738;9.228;2023-02-27T10:32:59;1.20;1.00
336;DHT22;156;48.738;9.228;2023-02-27T10:35:31;1.10;1.00
336;DHT22;156;48.738;9.228;2023-02-27T10:38:01;1.20;1.00
336;DHT22;156;48.738;9.228;2023-02-27T10:40:28;1.40;1.00
336;DHT22;156;48.738;9.228;2023-02-27T10:42:58;1.50;1.00
336;DHT22;156;48.738;9.228;2023-02-27T10:45:26;1.50;1.00
336;DHT22;156;48.738;9.228;2023-02-27T10:47:53;1.50;1.00
336;DHT22;156;48.738;9.228;2023-02-27T10:50:24;1.60;1.00
336;DHT22;156;48.738;9.228;2023-02-27T10:52:54;1.50;1.00
336;DHT22;156;48.738;9.228;2023-02-27T10:55:25;1.50;1.00
336;DHT22;156;48.738;9.228;2023-02-27T10:57:53;1.60;1.00
336;DHT22;156;48.738;9.228;2023-02-27T11:00:36;1.50;1.00
336;DHT22;156;48.738;9.228;2023-02-27T11:03:04;1.60;1.00
336;DHT22;156;48.738;9.228;2023-02-27T11:05:33;1.70;1.00
336;DHT22;156;48.738;9.228;2023-02-27T11:08:12;1.60;1.00
336;DHT22;156;48.738;9.228;2023-02-27T11:10:59;1.30;1.00
336;DHT22;156;48.738;9.228;2023-02-27T11:13:29;1.30;1.00
336;DHT22;156;48.738;9.228;2023-02-27T11:16:09;1.40;1.00
336;DHT22;156;48.738;9.228;2023-02-27T11:18:37;1.30;1.00
336;DHT22;156;48.738;9.228;2023-02-27T11:21:15;1.20;1.00
336;DHT22;156;48.738;9.228;2023-02-27T11:23:50;1.30;1.00
336;DHT22;156;48.738;9.228;2023-02-27T11:26:21;1.20;1.00
336;DHT22;156;48.738;9.228;2023-02-27T11:29:03;1.30;1.00
336;DHT22;156;48.738;9.228;2023-02-27T11:31:33;1.30;1.00
336;DHT22;156;48.738;9.228;2023-02-27T11:34:01;1.20;1.00
336;DHT22;156;48.738;9.228;2023-02-27T11:36:40;1.20;1.00
336;DHT22;156;48.738;9.228;2023-02-27T11:39:25;1.20;1.00
336;DHT22;156;48.738;9.228;2023-02-27T11:41:57;1.20;1.00
336;DHT22;156;48.738;9.228;2023-02-27T11:44:26;1.40;1.00
336;DHT22;156;48.738;9.228;2023-02-27T11:47:11;1.40;1.00
336;DHT22;156;48.738;9.228;2023-02-27T11:49:53;1.60;1.00
336;DHT22;156;48.738;9.228;2023-02-27T11:52:28;1.60;1.00
336;DHT22;156;48.738;9.228;2023-02-27T11:54:57;1.70;1.00
336;DHT22;156;48.738;9.228;2023-02-27T11:57:29;1.90;1.00
336;DHT22;156;48.738;9.228;2023-02-27T12:00:00;2.00;1.00
336;DHT22;156;48.738;9.228;2023-02-27T12:02:44;2.10;1.00
336;DHT22;156;48.738;9.228;2023-02-27T12:05:16;2.30;1.00
336;DHT22;156;48.738;9.228;2023-02-27T12:07:47;2.50;1.00
336;DHT22;156;48.738;9.228;2023-02-27T12:10:18;2.60;1.00
336;DHT22;156;48.738;9.228;2023-02-27T12:12:49;2.90;1.00
336;DHT22;156;48.738;9.228;2023-02-27T12:15:23;2.90;1.00
336;DHT22;156;48.738;9.228;2023-02-27T12:17:58;2.70;1.00
336;DHT22;156;48.738;9.228;2023-02-27T12:20:34;2.50;1.00
336;DHT22;156;48.738;9.228;2023-02-27T12:23:08;2.30;1.00
336;DHT22;156;48.738;9.228;2023-02-27T12:25:42;2.20;1.00
336;DHT22;156;48.738;9.228;2023-02-27T12:31:15;1.80;1.00
336;DHT22;156;48.738;9.228;2023-02-27T12:33:52;2.00;1.00
336;DHT22;156;48.738;9.228;2023-02-27T12:36:24;2.00;1.00
336;DHT22;156;48.738;9.228;2023-02-27T12:38:51;2.00;1.00
336;DHT22;156;48.738;9.228;2023-02-27T12:41:33;2.30;1.00
336;DHT22;156;48.738;9.228;2023-02-27T12:44:23;3.00;1.00
336;DHT22;156;48.738;9.228;2023-02-27T12:46:58;3.50;1.00
336;DHT22;156;48.738;9.228;2023-02-27T12:49:36;3.30;1.00
336;DHT22;156;48.738;9.228;2023-02-27T12:52:14;2.80;1.00
336;DHT22;156;48.738;9.228;2023-02-27T12:54:52;2.60;1.00
336;DHT22;156;48.738;9.228;2023-02-27T12:57:37;2.60;1.00
336;DHT22;156;48.738;9.228;2023-02-27T13:00:11;3.10;1.00
336;DHT22;156;48.738;9.228;2023-02-27T13:02:52;3.30;1.00
336;DHT22;156;48.738;9.228;2023-02-27T13:05:40;3.40;1.00
336;DHT22;156;48.738;9.228;2023-02-27T13:08:22;3.50;1.00
336;DHT22;156;48.738;9.228;2023-02-27T13:10:58;3.70;1.00
336;DHT22;156;48.738;9.228;2023-02-27T13:13:34;3.70;1.00
336;DHT22;156;48.738;9.228;2023-02-27T13:16:05;3.70;1.00
336;DHT22;156;48.738;9.228;2023-02-27T13:18:40;3.80;1.00
336;DHT22;156;48.738;9.228;2023-02-27T13:21:13;3.80;1.00
336;DHT22;156;48.738;9.228;2023-02-27T13:23:56;3.50;1.00
336;DHT22;156;48.738;9.228;2023-02-27T13:26:30;2.90;1.00
336;DHT22;156;48.738;9.228;2023-02-27T13:29:00;2.90;1.00
336;DHT22;156;48.738;9.228;2023-02-27T13:31:34;3.20;1.00
336;DHT22;156;48.738;9.228;2023-02-27T13:34:08;3.40;1.00
336;DHT22;156;48.738;9.228;2023-02-27T13:36:43;3.60;1.00
336;DHT22;156;48.738;9.228;2023-02-27T13:39:37;3.50;1.00
336;DHT22;156;48.738;9.228;2023-02-27T13:45:53;3.30;1.00
336;DHT22;156;48.738;9.228;2023-02-27T13:48:46;3.20;1.00
336;DHT22;156;48.738;9.228;2023-02-27T13:54:32;2.50;1.00
336;DHT22;156;48.738;9.228;2023-02-27T13:57:28;2.50;1.00
336;DHT22;156;48.738;9.228;2023-02-27T13:59:59;2.50;1.00
336;DHT22;156;48.738;9.228;2023-02-27T14:02:41;2.60;1.00
336;DHT22;156;48.738;9.228;2023-02-27T14:05:11;2.60;1.00
336;DHT22;156;48.738;9.228;2023-02-27T14:07:57;2.40;1.00
336;DHT22;156;48.738;9.228;2023-02-27T14:10:26;2.60;1.00
336;DHT22;156;48.738;9.228;2023-02-27T14:12:54;3.20;1.00
336;DHT22;156;48.738;9.228;2023-02-27T14:18:51;3.70;1.00
336;DHT22;156;48.738;9.228;2023-02-27T14:21:54;3.00;1.00
336;DHT22;156;48.738;9.228;2023-02-27T14:24:27;2.80;1.00
336;DHT22;156;48.738;9.228;2023-02-27T14:26:58;2.60;1.00
336;DHT22;156;48.738;9.228;2023-02-27T14:29:28;2.40;1.00
336;DHT22;156;48.738;9.228;2023-02-27T14:32:01;2.40;1.00
336;DHT22;156;48.738;9.228;2023-02-27T14:34:32;2.90;1.00
336;DHT22;156;48.738;9.228;2023-02-27T14:37:04;3.40;1.00
336;DHT22;156;48.738;9.228;2023-02-27T14:39:34;3.70;1.00
336;DHT22;156;48.738;9.228;2023-02-27T14:42:12;3.50;1.00
336;DHT22;156;48.738;9.228;2023-02-27T14:44:44;3.10;1.00
336;DHT22;156;48.738;9.228;2023-02-27T14:47:14;2.60;1.00
336;DHT22;156;48.738;9.228;2023-02-27T14:49:46;2.40;1.00
336;DHT22;156;48.738;9.228;2023-02-27T14:52:17;2.30;1.00
336;DHT22;156;48.738;9.228;2023-02-27T14:54:45;2.20;1.00
336;DHT22;156;48.738;9.228;2023-02-27T14:57:17;2.00;1.00
336;DHT22;156;48.738;9.228;2023-02-27T14:59:46;1.80;1.00
336;DHT22;156;48.738;9.228;2023-02-27T15:02:20;1.90;1.00
336;DHT22;156;48.738;9.228;2023-02-27T15:05:10;1.80;1.00
336;DHT22;156;48.738;9.228;2023-02-27T15:07:40;1.90;1.00
336;DHT22;156;48.738;9.228;2023-02-27T15:10:16;1.80;1.00
336;DHT22;156;48.738;9.228;2023-02-27T15:12:45;1.70;1.00
336;DHT22;156;48.738;9.228;2023-02-27T15:15:17;1.70;1.00
336;DHT22;156;48.738;9.228;2023-02-27T15:17:44;1.80;1.00
336;DHT22;156;48.738;9.228;2023-02-27T15:20:29;1.90;1.00
336;DHT22;156;48.738;9.228;2023-02-27T15:22:57;1.90;1.00
336;DHT22;156;48.738;9.228;2023-02-27T15:25:29;1.80;1.00
336;DHT22;156;48.738;9.228;2023-02-27T15:28:01;1.80;1.00
336;DHT22;156;48.738;9.228;2023-02-27T15:30:28;1.70;1.00
336;DHT22;156;48.738;9.228;2023-02-27T15:32:56;1.60;1.00
336;DHT22;156;48.738;9.228;2023-02-27T15:35:28;1.50;1.00
336;DHT22;156;48.738;9.228;2023-02-27T15:37:57;1.50;1.00
336;DHT22;156;48.738;9.228;2023-02-27T15:40:26;1.60;1.00
336;DHT22;156;48.738;9.228;2023-02-27T15:42:54;1.50;1.00
336;DHT22;156;48.738;9.228;2023-02-27T15:45:24;1.50;1.00
336;DHT22;156;48.738;9.228;2023-02-27T15:47:53;1.40;1.00
336;DHT22;156;48.738;9.228;2023-02-27T15:50:26;1.30;1.00
336;DHT22;156;48.738;9.228;2023-02-27T15:52:58;1.20;1.00
336;DHT22;156;48.738;9.228;2023-02-27T15:55:32;1.10;1.00
336;DHT22;156;48.738;9.228;2023-02-27T15:58:00;1.10;1.00
336;DHT22;156;48.738;9.228;2023-02-27T16:00:28;1.00;1.00
336;DHT22;156;48.738;9.228;2023-02-27T16:02:57;1.00;1.00
336;DHT22;156;48.738;9.228;2023-02-27T16:05:28;1.10;1.00
336;DHT22;156;48.738;9.228;2023-02-27T16:07:55;1.10;1.00
336;DHT22;156;48.738;9.228;2023-02-27T16:10:24;1.10;1.00
336;DHT22;156;48.738;9.228;2023-02-27T16:12:53;1.20;1.00
336;DHT22;156;48.738;9.228;2023-02-27T16:15:25;1.20;1.00
336;DHT22;156;48.738;9.228;2023-02-27T16:18:00;1.20;1.00
336;DHT22;156;48.738;9.228;2023-02-27T16:20:39;1.20;1.00
336;DHT22;156;48.738;9.228;2023-02-27T16:23:15;1.20;1.00
336;DHT22;156;48.738;9.228;2023-02-27T16:25:59;1.10;1.00
336;DHT22;156;48.738;9.228;2023-02-27T16:28:28;1.00;1.00
336;DHT22;156;48.738;9.228;2023-02-27T16:30:55;1.00;1.00
336;DHT22;156;48.738;9.228;2023-02-27T16:33:23;1.00;1.00
336;DHT22;156;48.738;9.228;2023-02-27T16:36:14;1.10;1.00
336;DHT22;156;48.738;9.228;2023-02-27T16:38:41;1.20;1.00
336;DHT22;156;48.738;9.228;2023-02-27T16:41:10;1.00;1.00
336;DHT22;156;48.738;9.228;2023-02-27T16:43:37;1.00;1.00
336;DHT22;156;48.738;9.228;2023-02-27T16:46:04;1.10;1.00
336;DHT22;156;48.738;9.228;2023-02-27T16:48:30;0.90;1.00
336;DHT22;156;48.738;9.228;2023-02-27T16:50:59;0.90;1.00
336;DHT22;156;48.738;9.228;2023-02-27T16:53:26;1.00;1.00
336;DHT22;156;48.738;9.228;2023-02-27T16:55:52;0.90;1.00
336;DHT22;156;48.738;9.228;2023-02-27T16:58:20;0.90;1.00
336;DHT22;156;48.738;9.228;2023-02-27T17:00:47;0.90;1.00
336;DHT22;156;48.738;9.228;2023-02-27T17:03:14;0.80;1.00
336;DHT22;156;48.738;9.228;2023-02-27T17:05:40;0.80;1.00
336;DHT22;156;48.738;9.228;2023-02-27T17:08:10;0.80;1.00
336;DHT22;156;48.738;9.228;2023-02-27T17:10:37;0.90;1.00
336;DHT22;156;48.738;9.228;2023-02-27T17:13:04;0.80;1.00
336;DHT22;156;48.738;9.228;2023-02-27T17:15:30;0.80;1.00
336;DHT22;156;48.738;9.228;2023-02-27T17:17:57;0.90;1.00
336;DHT22;156;48.738;9.228;2023-02-27T17:20:24;0.90;1.00
336;DHT22;156;48.738;9.228;2023-02-27T17:22:54;0.80;1.00
336;DHT22;156;48.738;9.228;2023-02-27T17:25:23;0.80;1.00
336;DHT22;156;48.738;9.228;2023-02-27T17:27:51;0.70;1.00
336;DHT22;156;48.738;9.228;2023-02-27T17:30:19;0.70;1.00
336;DHT22;156;48.738;9.228;2023-02-27T17:32:46;0.60;1.00
336;DHT22;156;48.738;9.228;2023-02-27T17:35:13;0.60;1.00
336;DHT22;156;48.738;9.228;2023-02-27T17:37:40;0.50;1.00
336;DHT22;156;48.738;9.228;2023-02-27T17:40:07;0.50;1.00
336;DHT22;156;48.738;9.228;2023-02-27T17:42:38;0.60;1.00
336;DHT22;156;48.738;9.228;2023-02-27T17:45:06;0.60;1.00
336;DHT22;156;48.738;9.228;2023-02-27T17:47:33;0.60;1.00
336;DHT22;156;48.738;9.228;2023-02-27T17:50:00;0.60;1.00